createdAt,value
2019-06-10T00:00:25.296Z,0.00
2019-06-10T00:01:25.306Z,0.00
2019-06-10T00:02:25.273Z,0.00
2019-06-10T00:03:25.279Z,0.00
2019-06-10T00:04:25.299Z,0.00
2019-06-10T00:05:25.256Z,0.00
2019-06-10T00:06:25.265Z,0.00
2019-06-10T00:07:25.223Z,0.00
2019-06-10T00:08:25.280Z,0.00
2019-06-10T00:09:25.210Z,0.00
2019-06-10T00:10:25.177Z,0.00
2019-06-10T00:11:25.167Z,0.00
2019-06-10T00:12:25.192Z,0.00
2019-06-10T00:13:25.141Z,0.00
2019-06-10T00:14:25.134Z,0.00
2019-06-10T00:15:25.119Z,0.00
2019-06-10T00:16:25.112Z,0.00
2019-06-10T00:17:25.125Z,0.00
2019-06-10T00:18:40.680Z,0.00
2019-06-10T00:19:26.089Z,0.00
2019-06-10T00:20:25.100Z,0.00
2019-06-10T00:21:25.183Z,0.00
2019-06-10T00:22:25.044Z,0.00
2019-06-10T00:23:25.049Z,0.00
2019-06-10T00:24:25.096Z,0.00
2019-06-10T00:25:25.008Z,0.00
2019-06-10T00:26:25.001Z,0.00
2019-06-10T00:27:24.988Z,0.00
2019-06-10T00:28:24.971Z,0.00
2019-06-10T00:29:24.977Z,0.00
2019-06-10T00:30:24.986Z,0.00
2019-06-10T00:31:24.967Z,0.00
2019-06-10T00:32:24.937Z,0.00
2019-06-10T00:33:24.923Z,0.00
2019-06-10T00:34:24.930Z,0.00
2019-06-10T00:35:24.901Z,0.00
2019-06-10T00:36:24.890Z,0.00
2019-06-10T00:37:24.942Z,0.00
2019-06-10T00:38:24.871Z,0.00
2019-06-10T00:39:24.855Z,0.00
2019-06-10T00:40:24.946Z,0.00
2019-06-10T00:41:24.829Z,0.00
2019-06-10T00:42:24.823Z,0.00
2019-06-10T00:43:24.836Z,0.00
2019-06-10T00:44:24.794Z,0.00
2019-06-10T00:45:24.784Z,0.00
2019-06-10T00:46:24.771Z,0.00
2019-06-10T00:47:24.763Z,0.00
2019-06-10T00:48:28.947Z,0.00
2019-06-10T00:49:25.743Z,0.00
2019-06-10T00:50:24.738Z,0.00
2019-06-10T00:51:24.740Z,0.00
2019-06-10T00:52:24.717Z,0.00
2019-06-10T00:53:24.703Z,0.00
2019-06-10T00:54:24.706Z,0.00
2019-06-10T00:55:24.674Z,0.00
2019-06-10T00:56:24.670Z,0.00
2019-06-10T00:57:24.670Z,0.00
2019-06-10T00:58:24.655Z,0.00
2019-06-10T00:59:25.632Z,0.00
2019-06-10T01:00:25.846Z,0.00
2019-06-10T01:01:24.615Z,0.00
2019-06-10T01:02:24.618Z,0.00
2019-06-10T01:03:24.623Z,0.00
2019-06-10T01:04:24.600Z,0.00
2019-06-10T01:05:24.580Z,0.00
2019-06-10T01:06:24.556Z,0.00
2019-06-10T01:07:24.583Z,0.00
2019-06-10T01:08:24.556Z,0.00
2019-06-10T01:09:24.512Z,0.00
2019-06-10T01:10:24.511Z,0.00
2019-06-10T01:11:27.166Z,0.00
2019-06-10T01:12:24.485Z,0.00
2019-06-10T01:13:24.472Z,0.00
2019-06-10T01:14:24.455Z,0.00
2019-06-10T01:15:24.453Z,0.00
2019-06-10T01:16:24.479Z,0.00
2019-06-10T01:17:24.421Z,0.00
2019-06-10T01:18:34.690Z,0.00
2019-06-10T01:19:25.439Z,0.00
2019-06-10T01:20:24.455Z,0.00
2019-06-10T01:21:24.419Z,0.00
2019-06-10T01:22:24.380Z,0.00
2019-06-10T01:23:24.381Z,0.00
2019-06-10T01:24:24.354Z,0.00
2019-06-10T01:25:24.332Z,0.00
2019-06-10T01:26:24.353Z,0.00
2019-06-10T01:27:24.311Z,0.00
2019-06-10T01:28:24.320Z,0.00
2019-06-10T01:29:24.292Z,0.00
2019-06-10T01:30:27.227Z,0.00
2019-06-10T01:31:24.530Z,0.00
2019-06-10T01:32:24.250Z,0.00
2019-06-10T01:33:24.247Z,0.00
2019-06-10T01:34:24.265Z,0.00
2019-06-10T01:35:24.229Z,0.00
2019-06-10T01:36:24.217Z,0.00
2019-06-10T01:37:24.244Z,0.00
2019-06-10T01:38:24.221Z,0.00
2019-06-10T01:39:24.184Z,0.00
2019-06-10T01:40:24.168Z,0.00
2019-06-10T01:41:24.165Z,0.00
2019-06-10T01:42:24.145Z,0.00
2019-06-10T01:43:24.177Z,0.00
2019-06-10T01:44:24.126Z,0.00
2019-06-10T01:45:24.106Z,0.00
2019-06-10T01:46:24.097Z,0.00
2019-06-10T01:47:24.213Z,0.00
2019-06-10T01:48:24.094Z,0.00
2019-06-10T01:49:24.083Z,0.00
2019-06-10T01:50:24.061Z,0.00
2019-06-10T01:51:24.074Z,0.00
2019-06-10T01:52:24.039Z,0.00
2019-06-10T01:53:24.033Z,0.00
2019-06-10T01:54:24.039Z,0.00
2019-06-10T01:55:23.998Z,0.00
2019-06-10T01:56:23.994Z,0.00
2019-06-10T01:57:24.011Z,0.00
2019-06-10T01:58:23.972Z,0.00
2019-06-10T01:59:23.950Z,0.00
2019-06-10T02:00:26.062Z,0.00
2019-06-10T02:01:23.932Z,0.00
2019-06-10T02:02:24.285Z,0.00
2019-06-10T02:03:24.124Z,0.00
2019-06-10T02:04:23.907Z,0.00
2019-06-10T02:05:23.887Z,0.00
2019-06-10T02:06:25.555Z,0.00
2019-06-10T02:07:23.867Z,0.00
2019-06-10T02:08:23.884Z,0.00
2019-06-10T02:09:23.841Z,0.00
2019-06-10T02:10:23.842Z,0.00
2019-06-10T02:11:23.821Z,0.00
2019-06-10T02:12:24.413Z,0.00
2019-06-10T02:13:23.797Z,0.00
2019-06-10T02:14:24.325Z,0.00
2019-06-10T02:15:23.776Z,0.00
2019-06-10T02:16:24.201Z,0.00
2019-06-10T02:17:24.216Z,0.00
2019-06-10T02:18:23.753Z,0.00
2019-06-10T02:19:23.862Z,0.00
2019-06-10T02:20:24.013Z,0.00
2019-06-10T02:21:24.507Z,0.00
2019-06-10T02:22:24.488Z,0.00
2019-06-10T02:23:23.693Z,0.00
2019-06-10T02:24:23.718Z,0.00
2019-06-10T02:25:23.718Z,0.00
2019-06-10T02:26:23.781Z,0.00
2019-06-10T02:27:23.778Z,0.00
2019-06-10T02:28:23.647Z,0.00
2019-06-10T02:29:23.729Z,0.00
2019-06-10T02:30:39.398Z,0.00
2019-06-10T02:31:30.010Z,0.00
2019-06-10T02:32:32.880Z,0.00
2019-06-10T02:33:30.862Z,0.00
2019-06-10T02:34:27.343Z,0.00
2019-06-10T02:35:30.453Z,0.00
2019-06-10T02:36:31.083Z,0.00
2019-06-10T02:37:31.858Z,0.00
2019-06-10T02:38:33.146Z,0.00
2019-06-10T02:39:32.258Z,0.00
2019-06-10T02:40:31.771Z,0.00
2019-06-10T02:41:31.949Z,0.00
2019-06-10T02:42:30.120Z,0.00
2019-06-10T02:43:32.103Z,0.00
2019-06-10T02:44:32.537Z,0.00
2019-06-10T02:45:32.697Z,0.00
2019-06-10T02:46:30.649Z,0.00
2019-06-10T02:47:31.838Z,0.00
2019-06-10T02:48:30.367Z,4.00
2019-06-10T02:49:46.948Z,4.00
2019-06-10T02:50:32.076Z,4.00
2019-06-10T02:51:30.212Z,4.00
2019-06-10T02:52:32.208Z,4.00
2019-06-10T02:53:30.701Z,4.00
2019-06-10T02:54:31.587Z,4.00
2019-06-10T02:55:30.545Z,8.00
2019-06-10T02:56:29.914Z,4.00
2019-06-10T02:57:30.467Z,8.00
2019-06-10T02:58:33.300Z,8.00
2019-06-10T02:59:27.479Z,8.00
2019-06-10T03:00:36.989Z,8.00
2019-06-10T03:01:30.587Z,12.00
2019-06-10T03:02:31.392Z,8.00
2019-06-10T03:03:35.818Z,12.00
2019-06-10T03:04:29.958Z,12.00
2019-06-10T03:05:30.611Z,12.00
2019-06-10T03:06:32.422Z,16.00
2019-06-10T03:07:28.840Z,16.00
2019-06-10T03:08:27.457Z,16.00
2019-06-10T03:09:27.389Z,20.00
2019-06-10T03:10:30.193Z,20.00
2019-06-10T03:11:28.045Z,24.00
2019-06-10T03:12:25.809Z,24.00
2019-06-10T03:13:25.458Z,28.00
2019-06-10T03:14:25.281Z,32.00
2019-06-10T03:15:25.146Z,32.00
2019-06-10T03:16:25.729Z,32.00
2019-06-10T03:17:24.801Z,36.00
2019-06-10T03:18:24.757Z,44.00
2019-06-10T03:19:38.406Z,44.00
2019-06-10T03:20:25.920Z,48.00
2019-06-10T03:21:24.630Z,48.00
2019-06-10T03:22:25.701Z,52.00
2019-06-10T03:23:25.152Z,56.00
2019-06-10T03:24:25.125Z,60.00
2019-06-10T03:25:25.687Z,64.00
2019-06-10T03:26:24.382Z,64.00
2019-06-10T03:27:23.558Z,72.00
2019-06-10T03:28:25.225Z,76.00
2019-06-10T03:29:24.941Z,76.00
2019-06-10T03:30:39.382Z,84.00
2019-06-10T03:31:33.424Z,88.00
2019-06-10T03:32:32.158Z,92.00
2019-06-10T03:33:34.531Z,96.00
2019-06-10T03:34:33.442Z,100.00
2019-06-10T03:35:25.407Z,112.00
2019-06-10T03:36:24.615Z,124.00
2019-06-10T03:37:23.302Z,136.00
2019-06-10T03:38:23.763Z,152.00
2019-06-10T03:39:23.855Z,164.00
2019-06-10T03:40:24.583Z,172.00
2019-06-10T03:42:26.460Z,192.00
2019-06-10T03:43:23.779Z,212.00
2019-06-10T03:44:24.825Z,224.00
2019-06-10T03:45:24.156Z,228.00
2019-06-10T03:46:24.268Z,224.00
2019-06-10T03:47:24.279Z,224.00
2019-06-10T03:48:24.142Z,224.00
2019-06-10T03:49:24.295Z,228.00
2019-06-10T03:50:25.536Z,236.00
2019-06-10T03:51:24.332Z,240.00
2019-06-10T03:52:25.283Z,244.00
2019-06-10T03:53:25.231Z,248.00
2019-06-10T03:54:25.812Z,248.00
2019-06-10T03:55:27.304Z,248.00
2019-06-10T03:56:25.028Z,248.00
2019-06-10T03:57:24.193Z,244.00
2019-06-10T03:58:26.173Z,236.00
2019-06-10T03:59:24.659Z,228.00
2019-06-10T04:00:24.534Z,228.00
2019-06-10T04:01:26.454Z,236.00
2019-06-10T04:02:25.173Z,252.00
2019-06-10T04:03:24.813Z,256.00
2019-06-10T04:04:24.951Z,256.00
2019-06-10T04:05:25.042Z,244.00
2019-06-10T04:06:25.584Z,236.00
2019-06-10T04:07:27.386Z,224.00
2019-06-10T04:08:25.069Z,224.00
2019-06-10T04:09:24.211Z,228.00
2019-06-10T04:10:25.003Z,236.00
2019-06-10T04:11:25.601Z,252.00
2019-06-10T04:12:24.700Z,272.00
2019-06-10T04:13:24.232Z,296.00
2019-06-10T04:14:25.002Z,324.00
2019-06-10T04:15:25.152Z,368.00
2019-06-10T04:16:25.129Z,396.00
2019-06-10T04:17:24.088Z,408.00
2019-06-10T04:18:24.968Z,404.00
2019-06-10T04:19:23.955Z,380.00
2019-06-10T04:20:25.063Z,364.00
2019-06-10T04:21:25.465Z,364.00
2019-06-10T04:22:24.071Z,380.00
2019-06-10T04:23:24.241Z,384.00
2019-06-10T04:24:23.712Z,372.00
2019-06-10T04:25:25.193Z,376.00
2019-06-10T04:26:25.242Z,380.00
2019-06-10T04:27:22.759Z,392.00
2019-06-10T04:28:24.058Z,404.00
2019-06-10T04:29:23.093Z,408.00
2019-06-10T04:30:24.330Z,364.00
2019-06-10T04:31:24.766Z,312.00
2019-06-10T04:32:23.118Z,296.00
2019-06-10T04:33:23.274Z,316.00
2019-06-10T04:34:25.529Z,316.00
2019-06-10T04:35:24.932Z,284.00
2019-06-10T04:36:24.450Z,276.00
2019-06-10T04:38:25.723Z,312.00
2019-06-10T04:39:24.543Z,328.00
2019-06-10T04:40:23.541Z,336.00
2019-06-10T04:41:24.310Z,364.00
2019-06-10T04:42:23.220Z,428.00
2019-06-10T04:43:23.432Z,460.00
2019-06-10T04:44:23.542Z,472.00
2019-06-10T04:45:23.601Z,480.00
2019-06-10T04:46:24.583Z,496.00
2019-06-10T04:47:23.794Z,516.00
2019-06-10T04:48:23.533Z,544.00
2019-06-10T04:49:25.066Z,560.00
2019-06-10T04:50:33.147Z,580.00
2019-06-10T04:51:24.955Z,608.00
2019-06-10T04:52:23.616Z,632.00
2019-06-10T04:53:23.723Z,672.00
2019-06-10T04:54:23.802Z,700.00
2019-06-10T04:55:23.578Z,712.00
2019-06-10T04:56:24.160Z,716.00
2019-06-10T04:57:23.833Z,708.00
2019-06-10T04:58:24.401Z,724.00
2019-06-10T04:59:24.349Z,752.00
2019-06-10T05:00:24.127Z,796.00
2019-06-10T05:01:25.561Z,840.00
2019-06-10T05:02:25.533Z,872.00
2019-06-10T05:03:23.829Z,872.00
2019-06-10T05:04:24.022Z,860.00
2019-06-10T05:05:25.002Z,852.00
2019-06-10T05:06:25.353Z,860.00
2019-06-10T05:07:24.101Z,892.00
2019-06-10T05:08:23.930Z,944.00
2019-06-10T05:09:24.397Z,996.00
2019-06-10T05:10:24.070Z,1052.00
2019-06-10T05:11:24.231Z,1108.00
2019-06-10T05:12:23.330Z,1156.00
2019-06-10T05:13:23.791Z,1204.00
2019-06-10T05:14:23.356Z,1248.00
2019-06-10T05:15:24.312Z,1284.00
2019-06-10T05:16:25.588Z,1288.00
2019-06-10T05:17:26.283Z,1276.00
2019-06-10T05:18:23.842Z,1240.00
2019-06-10T05:19:24.701Z,1196.00
2019-06-10T05:20:28.344Z,1156.00
2019-06-10T05:21:25.091Z,1148.00
2019-06-10T05:22:23.674Z,1160.00
2019-06-10T05:23:22.461Z,1180.00
2019-06-10T05:24:25.211Z,1208.00
2019-06-10T05:25:24.205Z,1240.00
2019-06-10T05:26:25.086Z,1260.00
2019-06-10T05:27:22.795Z,1264.00
2019-06-10T05:28:23.027Z,1292.00
2019-06-10T05:29:23.547Z,1304.00
2019-06-10T05:30:22.769Z,1352.00
2019-06-10T05:31:23.254Z,1456.00
2019-06-10T05:32:23.191Z,1520.00
2019-06-10T05:33:23.090Z,1496.00
2019-06-10T05:34:25.225Z,1448.00
2019-06-10T05:35:24.229Z,1420.00
2019-06-10T05:36:25.730Z,1472.00
2019-06-10T05:37:23.735Z,1512.00
2019-06-10T05:38:24.018Z,1484.00
2019-06-10T05:39:23.711Z,1476.00
2019-06-10T05:40:23.118Z,1488.00
2019-06-10T05:41:24.122Z,1512.00
2019-06-10T05:42:24.437Z,1420.00
2019-06-10T05:43:22.320Z,1216.00
2019-06-10T05:44:23.835Z,1124.00
2019-06-10T05:45:24.472Z,1156.00
2019-06-10T05:46:23.671Z,1196.00
2019-06-10T05:47:25.018Z,1144.00
2019-06-10T05:48:23.873Z,1064.00
2019-06-10T05:49:24.121Z,1076.00
2019-06-10T05:50:22.494Z,1092.00
2019-06-10T05:51:23.145Z,1184.00
2019-06-10T05:52:23.388Z,1304.00
2019-06-10T05:53:23.121Z,1420.00
2019-06-10T05:54:23.366Z,1536.00
2019-06-10T05:55:22.845Z,1704.00
2019-06-10T05:56:22.382Z,1816.00
2019-06-10T05:57:23.045Z,1916.00
2019-06-10T05:58:23.553Z,2036.00
2019-06-10T05:59:23.917Z,2120.00
2019-06-10T06:00:23.379Z,2196.00
2019-06-10T06:01:22.934Z,2232.00
2019-06-10T06:02:22.314Z,2300.00
2019-06-10T06:03:22.985Z,2460.00
2019-06-10T06:04:23.306Z,2668.00
2019-06-10T06:05:22.220Z,2784.00
2019-06-10T06:06:22.917Z,2728.00
2019-06-10T06:07:22.259Z,2540.00
2019-06-10T06:08:22.782Z,2308.00
2019-06-10T06:09:22.114Z,2120.00
2019-06-10T06:10:22.282Z,2160.00
2019-06-10T06:11:23.103Z,2376.00
2019-06-10T06:12:22.587Z,2592.00
2019-06-10T06:13:23.112Z,2636.00
2019-06-10T06:14:22.626Z,2628.00
2019-06-10T06:15:22.091Z,2648.00
2019-06-10T06:16:22.992Z,2676.00
2019-06-10T06:17:23.458Z,2856.00
2019-06-10T06:18:22.553Z,3176.00
2019-06-10T06:19:23.198Z,3404.00
2019-06-10T06:20:23.389Z,3508.00
2019-06-10T06:21:29.556Z,3484.00
2019-06-10T06:22:22.227Z,3484.00
2019-06-10T06:23:23.084Z,3520.00
2019-06-10T06:24:22.025Z,3528.00
2019-06-10T06:25:24.082Z,3468.00
2019-06-10T06:26:23.443Z,3324.00
2019-06-10T06:27:22.501Z,3184.00
2019-06-10T06:28:22.896Z,3152.00
2019-06-10T06:29:22.206Z,3180.00
2019-06-10T06:30:22.658Z,3216.00
2019-06-10T06:31:23.144Z,3248.00
2019-06-10T06:32:23.417Z,3340.00
2019-06-10T06:33:22.126Z,3396.00
2019-06-10T06:34:22.486Z,3392.00
2019-06-10T06:35:22.729Z,3464.00
2019-06-10T06:36:22.586Z,3544.00
2019-06-10T06:37:23.081Z,3576.00
2019-06-10T06:38:22.413Z,3636.00
2019-06-10T06:39:20.807Z,3644.00
2019-06-10T06:40:22.966Z,3636.00
2019-06-10T06:41:22.685Z,3548.00
2019-06-10T06:42:22.845Z,3520.00
2019-06-10T06:43:22.204Z,3612.00
2019-06-10T06:44:23.187Z,3656.00
2019-06-10T06:45:22.227Z,3664.00
2019-06-10T06:46:23.135Z,3468.00
2019-06-10T06:47:22.611Z,3228.00
2019-06-10T06:48:22.745Z,2912.00
2019-06-10T06:49:22.955Z,2636.00
2019-06-10T06:50:25.245Z,2360.00
2019-06-10T06:51:33.673Z,2248.00
2019-06-10T06:52:38.885Z,2696.00
2019-06-10T06:53:32.725Z,3512.00
2019-06-10T06:54:22.986Z,3812.00
2019-06-10T06:55:20.626Z,3648.00
2019-06-10T06:56:22.882Z,3372.00
2019-06-10T06:57:22.355Z,3128.00
2019-06-10T06:58:23.051Z,2944.00
2019-06-10T06:59:22.388Z,2800.00
2019-06-10T07:00:38.668Z,2836.00
2019-06-10T07:01:25.553Z,2980.00
2019-06-10T07:02:22.579Z,3068.00
2019-06-10T07:03:22.870Z,3136.00
2019-06-10T07:04:20.566Z,3168.00
2019-06-10T07:05:22.823Z,3268.00
2019-06-10T07:06:22.779Z,3324.00
2019-06-10T07:07:22.217Z,3140.00
2019-06-10T07:08:22.743Z,2840.00
2019-06-10T07:09:22.091Z,2660.00
2019-06-10T07:10:22.716Z,2820.00
2019-06-10T07:11:22.386Z,3056.00
2019-06-10T07:12:22.905Z,3044.00
2019-06-10T07:13:22.195Z,2812.00
2019-06-10T07:14:23.203Z,2756.00
2019-06-10T07:15:22.452Z,2844.00
2019-06-10T07:16:23.044Z,2932.00
2019-06-10T07:17:22.619Z,2988.00
2019-06-10T07:18:20.369Z,3056.00
2019-06-10T07:19:22.513Z,3120.00
2019-06-10T07:20:20.380Z,3172.00
2019-06-10T07:21:22.601Z,3196.00
2019-06-10T07:22:20.319Z,3176.00
2019-06-10T07:23:22.460Z,3160.00
2019-06-10T07:24:20.301Z,3164.00
2019-06-10T07:25:22.836Z,3156.00
2019-06-10T07:26:22.229Z,3144.00
2019-06-10T07:27:22.446Z,3204.00
2019-06-10T07:28:20.253Z,3164.00
2019-06-10T07:29:22.425Z,3200.00
2019-06-10T07:30:22.856Z,3160.00
2019-06-10T07:31:24.816Z,3036.00
2019-06-10T07:32:22.670Z,2936.00
2019-06-10T07:33:22.538Z,2800.00
2019-06-10T07:34:22.283Z,2744.00
2019-06-10T07:35:22.168Z,2736.00
2019-06-10T07:36:20.187Z,2908.00
2019-06-10T07:37:20.154Z,3296.00
2019-06-10T07:38:23.070Z,3432.00
2019-06-10T07:39:22.689Z,3580.00
2019-06-10T07:40:22.176Z,3516.00
2019-06-10T07:41:20.133Z,3604.00
2019-06-10T07:42:22.530Z,3648.00
2019-06-10T07:43:20.089Z,3948.00
2019-06-10T07:44:22.511Z,4020.00
2019-06-10T07:45:22.128Z,3876.00
2019-06-10T07:46:22.782Z,3792.00
2019-06-10T07:47:20.073Z,3748.00
2019-06-10T07:48:22.171Z,3680.00
2019-06-10T07:49:20.027Z,3540.00
2019-06-10T07:50:20.009Z,3516.00
2019-06-10T07:51:22.380Z,3552.00
2019-06-10T07:52:20.347Z,3724.00
2019-06-10T07:53:22.122Z,4080.00
2019-06-10T07:54:22.885Z,4356.00
2019-06-10T07:55:22.069Z,4756.00
2019-06-10T07:56:19.943Z,4912.00
2019-06-10T07:57:22.456Z,4548.00
2019-06-10T07:58:22.310Z,3796.00
2019-06-10T07:59:19.912Z,3488.00
2019-06-10T08:00:19.897Z,3500.00
2019-06-10T08:01:22.659Z,3564.00
2019-06-10T08:02:19.876Z,3508.00
2019-06-10T08:03:22.311Z,3292.00
2019-06-10T08:04:19.848Z,3296.00
2019-06-10T08:05:19.852Z,2952.00
2019-06-10T08:06:22.598Z,2832.00
2019-06-10T08:07:19.826Z,2968.00
2019-06-10T08:08:19.830Z,3260.00
2019-06-10T08:09:19.808Z,3348.00
2019-06-10T08:10:19.791Z,2924.00
2019-06-10T08:11:19.784Z,2584.00
2019-06-10T08:12:19.763Z,2652.00
2019-06-10T08:13:19.751Z,3160.00
2019-06-10T08:14:22.157Z,3612.00
2019-06-10T08:15:19.741Z,3868.00
2019-06-10T08:16:19.765Z,3824.00
2019-06-10T08:17:22.262Z,3772.00
2019-06-10T08:18:19.700Z,3752.00
2019-06-10T08:19:33.844Z,3756.00
2019-06-10T08:20:22.247Z,3968.00
2019-06-10T08:21:19.666Z,3952.00
2019-06-10T08:22:33.006Z,3904.00
2019-06-10T08:23:23.340Z,3944.00
2019-06-10T08:24:22.034Z,4108.00
2019-06-10T08:25:19.626Z,4252.00
2019-06-10T08:26:19.636Z,4336.00
2019-06-10T08:27:19.596Z,4796.00
2019-06-10T08:28:22.625Z,4552.00
2019-06-10T08:29:19.575Z,4324.00
2019-06-10T08:30:26.633Z,4056.00
2019-06-10T08:31:22.625Z,3928.00
2019-06-10T08:32:19.575Z,3812.00
2019-06-10T08:33:19.531Z,3644.00
2019-06-10T08:34:22.065Z,3532.00
2019-06-10T08:35:32.776Z,3408.00
2019-06-10T08:36:22.396Z,3284.00
2019-06-10T08:37:19.508Z,3140.00
2019-06-10T08:38:19.465Z,3204.00
2019-06-10T08:39:19.476Z,3352.00
2019-06-10T08:40:19.587Z,3296.00
2019-06-10T08:41:19.435Z,3464.00
2019-06-10T08:42:19.540Z,3628.00
2019-06-10T08:43:19.437Z,3696.00
2019-06-10T08:44:19.414Z,3636.00
2019-06-10T08:45:19.412Z,3596.00
2019-06-10T08:46:19.379Z,3528.00
2019-06-10T08:47:19.377Z,3448.00
2019-06-10T08:48:19.395Z,3240.00
2019-06-10T08:49:19.453Z,2928.00
2019-06-10T08:50:22.263Z,2600.00
2019-06-10T08:51:23.011Z,2360.00
2019-06-10T08:52:19.319Z,2316.00
2019-06-10T08:53:19.575Z,2316.00
2019-06-10T08:54:19.299Z,2320.00
2019-06-10T08:55:19.294Z,2268.00
2019-06-10T08:56:19.444Z,2228.00
2019-06-10T08:57:19.306Z,2132.00
2019-06-10T08:58:19.265Z,2008.00
2019-06-10T08:59:19.381Z,1952.00
2019-06-10T09:00:22.603Z,1836.00
2019-06-10T09:01:19.234Z,1764.00
2019-06-10T09:02:19.219Z,1780.00
2019-06-10T09:03:19.193Z,1872.00
2019-06-10T09:04:19.181Z,1912.00
2019-06-10T09:05:19.222Z,1996.00
2019-06-10T09:06:19.162Z,2048.00
2019-06-10T09:07:19.154Z,2036.00
2019-06-10T09:08:19.135Z,2092.00
2019-06-10T09:09:19.127Z,2196.00
2019-06-10T09:10:19.111Z,2196.00
2019-06-10T09:11:21.172Z,2156.00
2019-06-10T09:12:30.451Z,2200.00
2019-06-10T09:13:22.259Z,2164.00
2019-06-10T09:14:19.087Z,2180.00
2019-06-10T09:15:19.072Z,2168.00
2019-06-10T09:16:19.612Z,2220.00
2019-06-10T09:17:19.043Z,2264.00
2019-06-10T09:18:20.165Z,2216.00
2019-06-10T09:19:19.018Z,2220.00
2019-06-10T09:20:19.015Z,2320.00
2019-06-10T09:21:19.045Z,2388.00
2019-06-10T09:23:24.798Z,2684.00
2019-06-10T09:24:22.172Z,2660.00
2019-06-10T09:25:18.959Z,2820.00
2019-06-10T09:26:18.950Z,2756.00
2019-06-10T09:27:18.957Z,2588.00
2019-06-10T09:28:18.952Z,2468.00
2019-06-10T09:29:18.912Z,2244.00
2019-06-10T09:30:18.911Z,2392.00
2019-06-10T09:31:18.876Z,2376.00
2019-06-10T09:32:18.868Z,2364.00
2019-06-10T09:33:18.883Z,2312.00
2019-06-10T09:34:18.879Z,2220.00
2019-06-10T09:35:18.849Z,2164.00
2019-06-10T09:36:18.854Z,2108.00
2019-06-10T09:37:18.806Z,2448.00
2019-06-10T09:38:18.807Z,2748.00
2019-06-10T09:39:18.974Z,2972.00
2019-06-10T09:40:18.841Z,3000.00
2019-06-10T09:41:18.803Z,2744.00
2019-06-10T09:42:18.771Z,2840.00
2019-06-10T09:43:18.774Z,2760.00
2019-06-10T09:44:18.805Z,2620.00
2019-06-10T09:45:18.736Z,2624.00
2019-06-10T09:46:18.725Z,2568.00
2019-06-10T09:47:18.705Z,2548.00
2019-06-10T09:48:18.708Z,2652.00
2019-06-10T09:49:18.676Z,2600.00
2019-06-10T09:50:18.693Z,2564.00
2019-06-10T09:51:18.675Z,2660.00
2019-06-10T09:52:18.684Z,2596.00
2019-06-10T09:53:30.185Z,2788.00
2019-06-10T09:54:19.632Z,2876.00
2019-06-10T09:55:18.776Z,3120.00
2019-06-10T09:56:18.609Z,2964.00
2019-06-10T09:57:18.608Z,3228.00
2019-06-10T09:58:18.588Z,3400.00
2019-06-10T09:59:18.656Z,3244.00
2019-06-10T10:00:18.588Z,3772.00
2019-06-10T10:01:18.550Z,3944.00
2019-06-10T10:02:18.540Z,4140.00
2019-06-10T10:03:18.684Z,3888.00
2019-06-10T10:04:18.554Z,3364.00
2019-06-10T10:05:18.533Z,3356.00
2019-06-10T10:06:18.579Z,3192.00
2019-06-10T10:07:18.505Z,3576.00
2019-06-10T10:08:18.471Z,3908.00
2019-06-10T10:09:18.491Z,3960.00
2019-06-10T10:10:18.464Z,4192.00
2019-06-10T10:11:18.438Z,4784.00
2019-06-10T10:12:18.429Z,5136.00
2019-06-10T10:13:18.411Z,5728.00
2019-06-10T10:14:18.402Z,5652.00
2019-06-10T10:15:29.792Z,5220.00
2019-06-10T10:16:19.382Z,5436.00
2019-06-10T10:17:18.413Z,5536.00
2019-06-10T10:18:18.361Z,5676.00
2019-06-10T10:19:18.499Z,5708.00
2019-06-10T10:20:18.393Z,6128.00
2019-06-10T10:21:18.331Z,6272.00
2019-06-10T10:22:18.331Z,6792.00
2019-06-10T10:23:18.306Z,6964.00
2019-06-10T10:24:18.303Z,6876.00
2019-06-10T10:25:18.307Z,6684.00
2019-06-10T10:26:18.545Z,6648.00
2019-06-10T10:27:18.264Z,6680.00
2019-06-10T10:28:18.280Z,6872.00
2019-06-10T10:29:18.232Z,6944.00
2019-06-10T10:30:18.226Z,6928.00
2019-06-10T10:31:18.217Z,6508.00
2019-06-10T10:32:18.233Z,6628.00
2019-06-10T10:33:18.236Z,6916.00
2019-06-10T10:34:18.205Z,6764.00
2019-06-10T10:35:18.356Z,6520.00
2019-06-10T10:36:18.170Z,6356.00
2019-06-10T10:37:18.141Z,6120.00
2019-06-10T10:38:18.282Z,5548.00
2019-06-10T10:39:21.273Z,5340.00
2019-06-10T10:40:19.105Z,4896.00
2019-06-10T10:41:18.097Z,4580.00
2019-06-10T10:42:18.103Z,4592.00
2019-06-10T10:43:28.955Z,4896.00
2019-06-10T10:44:19.062Z,5216.00
2019-06-10T10:45:18.090Z,5832.00
2019-06-10T10:46:18.053Z,6248.00
2019-06-10T10:47:18.052Z,6612.00
2019-06-10T10:48:18.076Z,6764.00
2019-06-10T10:49:18.013Z,6660.00
2019-06-10T10:50:18.015Z,6836.00
2019-06-10T10:51:17.989Z,7184.00
2019-06-10T10:52:17.973Z,7280.00
2019-06-10T10:53:17.968Z,6936.00
2019-06-10T10:54:29.341Z,6428.00
2019-06-10T10:55:19.013Z,6276.00
2019-06-10T10:56:17.958Z,6296.00
2019-06-10T10:57:17.923Z,7020.00
2019-06-10T10:58:17.941Z,7032.00
2019-06-10T10:59:17.996Z,7128.00
2019-06-10T11:00:17.902Z,7520.00
2019-06-10T11:01:17.946Z,8176.00
2019-06-10T11:02:17.955Z,7768.00
2019-06-10T11:03:17.898Z,8040.00
2019-06-10T11:04:17.871Z,8200.00
2019-06-10T11:05:18.652Z,7792.00
2019-06-10T11:06:18.474Z,7676.00
2019-06-10T11:07:17.815Z,7828.00
2019-06-10T11:08:17.846Z,7992.00
2019-06-10T11:09:17.787Z,8396.00
2019-06-10T11:10:17.802Z,8508.00
2019-06-10T11:11:17.795Z,8512.00
2019-06-10T11:12:17.762Z,8464.00
2019-06-10T11:13:17.770Z,8276.00
2019-06-10T11:14:17.734Z,8288.00
2019-06-10T11:15:17.795Z,8368.00
2019-06-10T11:16:17.710Z,8420.00
2019-06-10T11:17:17.699Z,8404.00
2019-06-10T11:18:17.799Z,8272.00
2019-06-10T11:19:17.715Z,7932.00
2019-06-10T11:20:17.665Z,7824.00
2019-06-10T11:21:17.690Z,7912.00
2019-06-10T11:22:17.648Z,8176.00
2019-06-10T11:23:17.646Z,8432.00
2019-06-10T11:24:32.823Z,8216.00
2019-06-10T11:25:18.607Z,8036.00
2019-06-10T11:26:17.663Z,8520.00
2019-06-10T11:27:17.601Z,8584.00
2019-06-10T11:28:17.584Z,8628.00
2019-06-10T11:29:17.571Z,8836.00
2019-06-10T11:30:17.578Z,8548.00
2019-06-10T11:31:17.707Z,8844.00
2019-06-10T11:32:17.535Z,9168.00
2019-06-10T11:33:17.525Z,8924.00
2019-06-10T11:34:19.735Z,8536.00
2019-06-10T11:35:17.512Z,7852.00
2019-06-10T11:36:17.507Z,8436.00
2019-06-10T11:37:17.493Z,8896.00
2019-06-10T11:38:17.494Z,8992.00
2019-06-10T11:39:17.568Z,8880.00
2019-06-10T11:40:17.462Z,8896.00
2019-06-10T11:41:17.448Z,8808.00
2019-06-10T11:42:17.452Z,8428.00
2019-06-10T11:43:17.412Z,8144.00
2019-06-10T11:44:17.435Z,8232.00
2019-06-10T11:45:17.408Z,8308.00
2019-06-10T11:46:17.389Z,8396.00
2019-06-10T11:47:17.389Z,8264.00
2019-06-10T11:48:17.384Z,8008.00
2019-06-10T11:49:17.352Z,7824.00
2019-06-10T11:50:17.394Z,7480.00
2019-06-10T11:51:17.325Z,7500.00
2019-06-10T11:52:17.365Z,7580.00
2019-06-10T11:53:17.317Z,7448.00
2019-06-10T11:54:17.300Z,7248.00
2019-06-10T11:55:19.319Z,7228.00
2019-06-10T11:56:17.282Z,7444.00
2019-06-10T11:57:17.266Z,7872.00
2019-06-10T11:58:17.326Z,7936.00
2019-06-10T11:59:17.226Z,8104.00
2019-06-10T12:00:17.500Z,8132.00
2019-06-10T12:01:17.270Z,8360.00
2019-06-10T12:02:17.232Z,8224.00
2019-06-10T12:03:17.187Z,8584.00
2019-06-10T12:04:17.187Z,8840.00
2019-06-10T12:05:20.293Z,9328.00
2019-06-10T12:06:17.179Z,9312.00
2019-06-10T12:07:17.149Z,9076.00
2019-06-10T12:08:17.174Z,9320.00
2019-06-10T12:09:17.175Z,9048.00
2019-06-10T12:10:17.144Z,9564.00
2019-06-10T12:11:17.148Z,9948.00
2019-06-10T12:12:17.658Z,9556.00
2019-06-10T12:13:17.078Z,9360.00
2019-06-10T12:14:17.277Z,9168.00
2019-06-10T12:15:17.089Z,8728.00
2019-06-10T12:17:34.877Z,8136.00
2019-06-10T12:18:18.031Z,8584.00
2019-06-10T12:19:17.016Z,8788.00
2019-06-10T12:20:17.005Z,8556.00
2019-06-10T12:21:17.009Z,8592.00
2019-06-10T12:22:16.980Z,8636.00
2019-06-10T12:23:16.995Z,9252.00
2019-06-10T12:24:16.998Z,10160.00
2019-06-10T12:25:31.308Z,11556.00
2019-06-10T12:26:17.957Z,11632.00
2019-06-10T12:27:16.941Z,13516.00
2019-06-10T12:28:16.949Z,14628.00
2019-06-10T12:29:17.459Z,13424.00
2019-06-10T12:30:16.896Z,11088.00